sensor_id;sensor_type;location;lat;lon;timestamp;temperature;humidity
11650;DHT22;5881;48.522;7.682;2022-07-03T00:01:11;18.20;99.90
11650;DHT22;5881;48.522;7.682;2022-07-03T00:03:37;18.10;99.90
11650;DHT22;5881;48.522;7.682;2022-07-03T00:06:03;18.10;1.00
11650;DHT22;5881;48.522;7.682;2022-07-03T00:08:28;18.00;99.90
11650;DHT22;5881;48.522;7.682;2022-07-03T00:10:54;18.10;99.90
11650;DHT22;5881;48.522;7.682;2022-07-03T00:13:20;18.00;1.00
11650;DHT22;5881;48.522;7.682;2022-07-03T00:15:46;18.10;1.00
11650;DHT22;5881;48.522;7.682;2022-07-03T00:18:11;18.00;1.00
11650;DHT22;5881;48.522;7.682;2022-07-03T00:20:44;18.00;99.90
11650;DHT22;5881;48.522;7.682;2022-07-03T00:23:14;17.90;99.90
11650;DHT22;5881;48.522;7.682;2022-07-03T00:25:40;17.90;1.00
11650;DHT22;5881;48.522;7.682;2022-07-03T00:28:07;17.80;99.90
11650;DHT22;5881;48.522;7.682;2022-07-03T00:30:36;17.70;99.90
11650;DHT22;5881;48.522;7.682;2022-07-03T00:33:03;17.70;99.90
11650;DHT22;5881;48.522;7.682;2022-07-03T00:35:33;17.80;1.00
11650;DHT22;5881;48.522;7.682;2022-07-03T00:38:00;17.90;47.80
11650;DHT22;5881;48.522;7.682;2022-07-03T00:40:26;17.90;1.00
11650;DHT22;5881;48.522;7.682;2022-07-03T00:42:51;17.80;99.90
11650;DHT22;5881;48.522;7.682;2022-07-03T00:45:19;17.70;1.00
11650;DHT22;5881;48.522;7.682;2022-07-03T00:47:45;17.70;1.00
11650;DHT22;5881;48.522;7.682;2022-07-03T00:50:11;17.60;99.90
11650;DHT22;5881;48.522;7.682;2022-07-03T00:52:37;17.70;1.00
11650;DHT22;5881;48.522;7.682;2022-07-03T00:55:08;17.70;1.00
11650;DHT22;5881;48.522;7.682;2022-07-03T00:57:35;17.70;1.00
11650;DHT22;5881;48.522;7.682;2022-07-03T01:00:07;17.70;1.00
11650;DHT22;5881;48.522;7.682;2022-07-03T01:02:56;17.80;1.00
11650;DHT22;5881;48.522;7.682;2022-07-03T01:05:35;17.80;1.00
11650;DHT22;5881;48.522;7.682;2022-07-03T01:15:58;17.60;1.00
11650;DHT22;5881;48.522;7.682;2022-07-03T01:18:45;17.60;1.00
11650;DHT22;5881;48.522;7.682;2022-07-03T01:26:41;17.40;99.90
11650;DHT22;5881;48.522;7.682;2022-07-03T01:29:08;17.40;88.50
11650;DHT22;5881;48.522;7.682;2022-07-03T01:31:38;17.30;1.00
11650;DHT22;5881;48.522;7.682;2022-07-03T01:34:12;17.20;1.00
11650;DHT22;5881;48.522;7.682;2022-07-03T01:36:41;17.20;1.00
11650;DHT22;5881;48.522;7.682;2022-07-03T01:39:10;17.00;99.90
11650;DHT22;5881;48.522;7.682;2022-07-03T01:41:37;17.00;1.00
11650;DHT22;5881;48.522;7.682;2022-07-03T01:44:06;16.90;1.00
11650;DHT22;5881;48.522;7.682;2022-07-03T01:46:33;16.80;99.90
11650;DHT22;5881;48.522;7.682;2022-07-03T01:48:59;16.80;99.90
11650;DHT22;5881;48.522;7.682;2022-07-03T01:51:25;16.70;99.90
11650;DHT22;5881;48.522;7.682;2022-07-03T01:53:52;16.70;99.90
11650;DHT22;5881;48.522;7.682;2022-07-03T01:56:20;16.60;99.90
11650;DHT22;5881;48.522;7.682;2022-07-03T01:58:46;16.60;1.00
11650;DHT22;5881;48.522;7.682;2022-07-03T02:01:41;16.70;1.00
11650;DHT22;5881;48.522;7.682;2022-07-03T02:04:33;16.70;1.00
11650;DHT22;5881;48.522;7.682;2022-07-03T02:07:07;16.70;1.00
11650;DHT22;5881;48.522;7.682;2022-07-03T02:12:27;16.70;1.00
11650;DHT22;5881;48.522;7.682;2022-07-03T02:15:09;16.70;1.00
11650;DHT22;5881;48.522;7.682;2022-07-03T02:17:44;16.60;1.00
11650;DHT22;5881;48.522;7.682;2022-07-03T02:20:11;16.60;1.00
11650;DHT22;5881;48.522;7.682;2022-07-03T02:22:47;16.70;1.00
11650;DHT22;5881;48.522;7.682;2022-07-03T02:25:30;16.70;1.00
11650;DHT22;5881;48.522;7.682;2022-07-03T02:28:05;16.60;1.00
11650;DHT22;5881;48.522;7.682;2022-07-03T02:30:35;16.60;1.00
11650;DHT22;5881;48.522;7.682;2022-07-03T02:33:02;16.70;1.00
11650;DHT22;5881;48.522;7.682;2022-07-03T02:35:31;16.70;1.00
11650;DHT22;5881;48.522;7.682;2022-07-03T02:38:08;16.70;1.00
11650;DHT22;5881;48.522;7.682;2022-07-03T02:40:49;16.70;1.00
11650;DHT22;5881;48.522;7.682;2022-07-03T02:46:16;16.70;99.90
11650;DHT22;5881;48.522;7.682;2022-07-03T02:51:41;16.80;99.90
11650;DHT22;5881;48.522;7.682;2022-07-03T02:54:13;16.80;99.90
11650;DHT22;5881;48.522;7.682;2022-07-03T02:57:05;16.80;99.90
11650;DHT22;5881;48.522;7.682;2022-07-03T02:59:56;16.70;99.90
11650;DHT22;5881;48.522;7.682;2022-07-03T03:05:12;16.70;99.90
11650;DHT22;5881;48.522;7.682;2022-07-03T03:08:01;16.70;1.00
11650;DHT22;5881;48.522;7.682;2022-07-03T03:10:27;16.60;1.00
11650;DHT22;5881;48.522;7.682;2022-07-03T03:13:08;16.60;1.00
11650;DHT22;5881;48.522;7.682;2022-07-03T03:15:36;16.50;58.50
11650;DHT22;5881;48.522;7.682;2022-07-03T03:18:05;16.40;99.90
11650;DHT22;5881;48.522;7.682;2022-07-03T03:20:33;16.30;99.90
11650;DHT22;5881;48.522;7.682;2022-07-03T03:23:19;16.30;1.00
11650;DHT22;5881;48.522;7.682;2022-07-03T03:25:47;16.30;1.00
11650;DHT22;5881;48.522;7.682;2022-07-03T03:28:13;16.20;1.00
11650;DHT22;5881;48.522;7.682;2022-07-03T03:30:39;16.20;1.00
11650;DHT22;5881;48.522;7.682;2022-07-03T03:33:06;16.20;1.00
11650;DHT22;5881;48.522;7.682;2022-07-03T03:35:36;16.20;1.00
11650;DHT22;5881;48.522;7.682;2022-07-03T03:38:02;16.20;1.00
11650;DHT22;5881;48.522;7.682;2022-07-03T03:40:28;16.20;99.90
11650;DHT22;5881;48.522;7.682;2022-07-03T03:42:53;16.20;99.90
11650;DHT22;5881;48.522;7.682;2022-07-03T03:45:19;16.20;99.90
11650;DHT22;5881;48.522;7.682;2022-07-03T03:47:45;16.10;99.90
11650;DHT22;5881;48.522;7.682;2022-07-03T03:50:10;16.20;1.00
11650;DHT22;5881;48.522;7.682;2022-07-03T03:52:36;16.10;1.00
11650;DHT22;5881;48.522;7.682;2022-07-03T03:55:02;16.10;1.00
11650;DHT22;5881;48.522;7.682;2022-07-03T03:57:28;16.20;1.00
11650;DHT22;5881;48.522;7.682;2022-07-03T03:59:55;16.20;99.90
11650;DHT22;5881;48.522;7.682;2022-07-03T04:02:21;16.20;99.90
11650;DHT22;5881;48.522;7.682;2022-07-03T04:04:46;16.30;99.90
11650;DHT22;5881;48.522;7.682;2022-07-03T04:07:12;16.30;99.90
11650;DHT22;5881;48.522;7.682;2022-07-03T04:09:38;16.40;1.00
11650;DHT22;5881;48.522;7.682;2022-07-03T04:12:04;16.40;1.00
11650;DHT22;5881;48.522;7.682;2022-07-03T04:14:30;16.50;1.00
11650;DHT22;5881;48.522;7.682;2022-07-03T04:16:56;16.50;99.90
11650;DHT22;5881;48.522;7.682;2022-07-03T04:19:22;16.50;99.90
11650;DHT22;5881;48.522;7.682;2022-07-03T04:21:48;16.60;99.90
11650;DHT22;5881;48.522;7.682;2022-07-03T04:24:15;16.60;1.00
11650;DHT22;5881;48.522;7.682;2022-07-03T04:26:40;16.60;1.00
11650;DHT22;5881;48.522;7.682;2022-07-03T04:29:06;16.70;99.90
11650;DHT22;5881;48.522;7.682;2022-07-03T04:31:32;16.80;99.90
11650;DHT22;5881;48.522;7.682;2022-07-03T04:33:57;16.70;1.00
11650;DHT22;5881;48.522;7.682;2022-07-03T04:36:23;16.70;1.00
11650;DHT22;5881;48.522;7.682;2022-07-03T04:38:48;16.80;1.00
11650;DHT22;5881;48.522;7.682;2022-07-03T04:41:14;16.80;31.40
11650;DHT22;5881;48.522;7.682;2022-07-03T04:43:40;17.00;1.00
11650;DHT22;5881;48.522;7.682;2022-07-03T04:46:05;17.20;99.90
11650;DHT22;5881;48.522;7.682;2022-07-03T04:48:31;17.30;99.90
11650;DHT22;5881;48.522;7.682;2022-07-03T04:50:57;17.50;1.00
11650;DHT22;5881;48.522;7.682;2022-07-03T04:53:23;17.80;99.90
11650;DHT22;5881;48.522;7.682;2022-07-03T04:55:49;18.40;99.90
11650;DHT22;5881;48.522;7.682;2022-07-03T04:58:14;19.10;1.00
11650;DHT22;5881;48.522;7.682;2022-07-03T05:00:40;19.70;1.00
11650;DHT22;5881;48.522;7.682;2022-07-03T05:03:07;20.40;99.90
11650;DHT22;5881;48.522;7.682;2022-07-03T05:05:33;20.70;99.90
11650;DHT22;5881;48.522;7.682;2022-07-03T05:07:59;21.80;99.90
11650;DHT22;5881;48.522;7.682;2022-07-03T05:10:26;21.60;99.90
11650;DHT22;5881;48.522;7.682;2022-07-03T05:12:52;21.90;99.90
11650;DHT22;5881;48.522;7.682;2022-07-03T05:15:17;22.80;99.10
11650;DHT22;5881;48.522;7.682;2022-07-03T05:17:43;22.60;56.00
11650;DHT22;5881;48.522;7.682;2022-07-03T05:20:09;23.20;1.00
11650;DHT22;5881;48.522;7.682;2022-07-03T05:23:01;23.60;1.00
11650;DHT22;5881;48.522;7.682;2022-07-03T05:25:28;23.90;1.00
11650;DHT22;5881;48.522;7.682;2022-07-03T05:27:54;24.20;1.00
11650;DHT22;5881;48.522;7.682;2022-07-03T05:30:22;24.50;1.00
11650;DHT22;5881;48.522;7.682;2022-07-03T05:32:48;24.00;1.00
11650;DHT22;5881;48.522;7.682;2022-07-03T05:35:14;24.30;1.00
11650;DHT22;5881;48.522;7.682;2022-07-03T05:37:40;24.80;1.00
11650;DHT22;5881;48.522;7.682;2022-07-03T05:40:06;24.00;1.00
11650;DHT22;5881;48.522;7.682;2022-07-03T05:42:32;23.80;1.00
11650;DHT22;5881;48.522;7.682;2022-07-03T05:44:59;24.80;1.00
11650;DHT22;5881;48.522;7.682;2022-07-03T05:47:24;25.60;1.00
11650;DHT22;5881;48.522;7.682;2022-07-03T05:49:50;24.80;1.00
11650;DHT22;5881;48.522;7.682;2022-07-03T05:52:16;24.30;1.00
11650;DHT22;5881;48.522;7.682;2022-07-03T05:54:42;23.90;1.00
11650;DHT22;5881;48.522;7.682;2022-07-03T05:57:07;23.50;1.00
11650;DHT22;5881;48.522;7.682;2022-07-03T05:59:33;24.90;1.00
11650;DHT22;5881;48.522;7.682;2022-07-03T06:01:59;25.20;1.00
11650;DHT22;5881;48.522;7.682;2022-07-03T06:04:25;24.60;1.00
11650;DHT22;5881;48.522;7.682;2022-07-03T06:06:50;25.20;1.00
11650;DHT22;5881;48.522;7.682;2022-07-03T06:09:16;25.40;1.00
11650;DHT22;5881;48.522;7.682;2022-07-03T06:11:41;25.00;1.00
11650;DHT22;5881;48.522;7.682;2022-07-03T06:14:07;25.50;1.00
11650;DHT22;5881;48.522;7.682;2022-07-03T06:16:32;26.10;1.00
11650;DHT22;5881;48.522;7.682;2022-07-03T06:18:59;26.20;1.00
11650;DHT22;5881;48.522;7.682;2022-07-03T06:21:24;27.00;1.00
11650;DHT22;5881;48.522;7.682;2022-07-03T06:23:50;26.40;1.00
11650;DHT22;5881;48.522;7.682;2022-07-03T06:26:15;26.50;1.00
11650;DHT22;5881;48.522;7.682;2022-07-03T06:28:41;26.60;1.00
11650;DHT22;5881;48.522;7.682;2022-07-03T06:31:07;27.60;1.00
11650;DHT22;5881;48.522;7.682;2022-07-03T06:33:32;28.20;1.00
11650;DHT22;5881;48.522;7.682;2022-07-03T06:35:58;28.30;1.00
11650;DHT22;5881;48.522;7.682;2022-07-03T06:38:23;28.50;1.00
11650;DHT22;5881;48.522;7.682;2022-07-03T06:40:49;28.00;1.00
11650;DHT22;5881;48.522;7.682;2022-07-03T06:43:15;28.60;1.00
11650;DHT22;5881;48.522;7.682;2022-07-03T06:45:43;27.80;1.00
11650;DHT22;5881;48.522;7.682;2022-07-03T06:48:09;28.30;1.00
11650;DHT22;5881;48.522;7.682;2022-07-03T06:50:35;28.10;1.00
11650;DHT22;5881;48.522;7.682;2022-07-03T06:53:01;28.00;1.00
11650;DHT22;5881;48.522;7.682;2022-07-03T06:55:27;28.90;1.00
11650;DHT22;5881;48.522;7.682;2022-07-03T06:57:53;28.70;1.00
11650;DHT22;5881;48.522;7.682;2022-07-03T07:00:18;28.90;1.00
11650;DHT22;5881;48.522;7.682;2022-07-03T07:02:44;29.90;1.00
11650;DHT22;5881;48.522;7.682;2022-07-03T07:05:10;30.20;1.00
11650;DHT22;5881;48.522;7.682;2022-07-03T07:07:35;30.60;1.00
11650;DHT22;5881;48.522;7.682;2022-07-03T07:10:02;28.50;1.00
11650;DHT22;5881;48.522;7.682;2022-07-03T07:12:30;29.70;1.00
11650;DHT22;5881;48.522;7.682;2022-07-03T07:14:56;28.80;1.00
11650;DHT22;5881;48.522;7.682;2022-07-03T07:17:21;29.80;1.00
11650;DHT22;5881;48.522;7.682;2022-07-03T07:19:47;30.30;1.00
11650;DHT22;5881;48.522;7.682;2022-07-03T07:22:13;29.80;1.00
11650;DHT22;5881;48.522;7.682;2022-07-03T07:24:38;29.20;1.00
11650;DHT22;5881;48.522;7.682;2022-07-03T07:27:04;30.40;1.00
11650;DHT22;5881;48.522;7.682;2022-07-03T07:29:30;30.40;1.00
11650;DHT22;5881;48.522;7.682;2022-07-03T07:31:55;31.70;1.00
11650;DHT22;5881;48.522;7.682;2022-07-03T07:34:21;30.80;1.00
11650;DHT22;5881;48.522;7.682;2022-07-03T07:36:47;31.30;1.00
11650;DHT22;5881;48.522;7.682;2022-07-03T07:39:12;31.70;1.00
11650;DHT22;5881;48.522;7.682;2022-07-03T07:41:38;31.30;1.00
11650;DHT22;5881;48.522;7.682;2022-07-03T07:44:04;31.00;1.00
11650;DHT22;5881;48.522;7.682;2022-07-03T07:46:30;31.70;1.00
11650;DHT22;5881;48.522;7.682;2022-07-03T07:48:56;32.70;1.00
11650;DHT22;5881;48.522;7.682;2022-07-03T07:51:22;32.30;1.00
11650;DHT22;5881;48.522;7.682;2022-07-03T07:53:48;31.50;1.00
11650;DHT22;5881;48.522;7.682;2022-07-03T07:56:15;31.90;1.00
11650;DHT22;5881;48.522;7.682;2022-07-03T07:58:41;32.70;1.00
11650;DHT22;5881;48.522;7.682;2022-07-03T08:01:07;31.60;1.00
11650;DHT22;5881;48.522;7.682;2022-07-03T08:03:51;31.70;1.00
11650;DHT22;5881;48.522;7.682;2022-07-03T08:06:35;32.80;1.00
11650;DHT22;5881;48.522;7.682;2022-07-03T08:09:01;32.70;1.00
11650;DHT22;5881;48.522;7.682;2022-07-03T08:11:27;32.80;1.00
11650;DHT22;5881;48.522;7.682;2022-07-03T08:13:52;32.30;1.00
11650;DHT22;5881;48.522;7.682;2022-07-03T08:16:18;32.10;1.00
11650;DHT22;5881;48.522;7.682;2022-07-03T08:18:43;32.20;1.00
11650;DHT22;5881;48.522;7.682;2022-07-03T08:21:09;32.80;1.00
11650;DHT22;5881;48.522;7.682;2022-07-03T08:23:35;33.20;1.00
11650;DHT22;5881;48.522;7.682;2022-07-03T08:26:00;33.30;1.00
11650;DHT22;5881;48.522;7.682;2022-07-03T08:28:27;33.50;1.00
11650;DHT22;5881;48.522;7.682;2022-07-03T08:30:52;33.80;1.00
11650;DHT22;5881;48.522;7.682;2022-07-03T08:33:18;34.30;1.00
11650;DHT22;5881;48.522;7.682;2022-07-03T08:35:44;33.70;1.00
11650;DHT22;5881;48.522;7.682;2022-07-03T08:38:09;33.90;1.00
11650;DHT22;5881;48.522;7.682;2022-07-03T08:40:36;34.20;1.00
11650;DHT22;5881;48.522;7.682;2022-07-03T08:43:02;33.30;1.00
11650;DHT22;5881;48.522;7.682;2022-07-03T08:45:29;34.40;1.00
11650;DHT22;5881;48.522;7.682;2022-07-03T08:47:58;34.70;1.00
11650;DHT22;5881;48.522;7.682;2022-07-03T08:50:24;34.90;1.00
11650;DHT22;5881;48.522;7.682;2022-07-03T08:52:50;34.40;1.00
11650;DHT22;5881;48.522;7.682;2022-07-03T08:55:17;34.70;1.00
11650;DHT22;5881;48.522;7.682;2022-07-03T08:57:45;34.20;1.00
11650;DHT22;5881;48.522;7.682;2022-07-03T09:00:13;34.30;1.00
11650;DHT22;5881;48.522;7.682;2022-07-03T09:02:42;34.80;1.00
11650;DHT22;5881;48.522;7.682;2022-07-03T09:05:10;34.70;1.00
11650;DHT22;5881;48.522;7.682;2022-07-03T09:07:38;36.20;1.00
11650;DHT22;5881;48.522;7.682;2022-07-03T09:10:05;35.40;1.00
11650;DHT22;5881;48.522;7.682;2022-07-03T09:12:32;35.90;1.00
11650;DHT22;5881;48.522;7.682;2022-07-03T09:14:59;35.70;1.00
11650;DHT22;5881;48.522;7.682;2022-07-03T09:17:25;35.50;1.00
11650;DHT22;5881;48.522;7.682;2022-07-03T09:19:50;35.30;1.00
11650;DHT22;5881;48.522;7.682;2022-07-03T09:22:28;36.00;1.00
11650;DHT22;5881;48.522;7.682;2022-07-03T09:25:14;35.40;1.00
11650;DHT22;5881;48.522;7.682;2022-07-03T09:27:50;35.70;1.00
11650;DHT22;5881;48.522;7.682;2022-07-03T09:30:17;35.20;1.00
11650;DHT22;5881;48.522;7.682;2022-07-03T09:32:47;35.50;1.00
11650;DHT22;5881;48.522;7.682;2022-07-03T09:37:57;36.30;1.00
11650;DHT22;5881;48.522;7.682;2022-07-03T09:40:25;35.70;1.00
11650;DHT22;5881;48.522;7.682;2022-07-03T09:42:59;36.60;1.00
11650;DHT22;5881;48.522;7.682;2022-07-03T09:45:25;37.00;1.00
11650;DHT22;5881;48.522;7.682;2022-07-03T09:47:51;36.90;1.00
11650;DHT22;5881;48.522;7.682;2022-07-03T09:50:17;36.90;1.00
11650;DHT22;5881;48.522;7.682;2022-07-03T09:52:44;36.20;1.00
11650;DHT22;5881;48.522;7.682;2022-07-03T09:57:37;36.20;1.00
11650;DHT22;5881;48.522;7.682;2022-07-03T10:05:23;36.50;1.00
11650;DHT22;5881;48.522;7.682;2022-07-03T10:07:54;36.80;1.00
11650;DHT22;5881;48.522;7.682;2022-07-03T10:10:20;35.80;1.00
11650;DHT22;5881;48.522;7.682;2022-07-03T10:12:51;36.10;1.00
11650;DHT22;5881;48.522;7.682;2022-07-03T10:15:17;36.10;1.00
11650;DHT22;5881;48.522;7.682;2022-07-03T10:17:47;36.00;1.00
11650;DHT22;5881;48.522;7.682;2022-07-03T10:20:14;36.50;1.00
11650;DHT22;5881;48.522;7.682;2022-07-03T10:22:45;37.40;1.00
11650;DHT22;5881;48.522;7.682;2022-07-03T10:25:13;36.50;1.00
11650;DHT22;5881;48.522;7.682;2022-07-03T10:27:39;36.40;1.00
11650;DHT22;5881;48.522;7.682;2022-07-03T10:30:06;36.70;1.00
11650;DHT22;5881;48.522;7.682;2022-07-03T10:32:37;37.70;1.00
11650;DHT22;5881;48.522;7.682;2022-07-03T10:35:05;36.40;1.00
11650;DHT22;5881;48.522;7.682;2022-07-03T10:37:43;36.10;1.00
11650;DHT22;5881;48.522;7.682;2022-07-03T10:40:23;35.70;1.00
11650;DHT22;5881;48.522;7.682;2022-07-03T10:43:15;35.70;1.00
11650;DHT22;5881;48.522;7.682;2022-07-03T10:46:12;35.20;1.00
11650;DHT22;5881;48.522;7.682;2022-07-03T10:49:11;34.50;1.00
11650;DHT22;5881;48.522;7.682;2022-07-03T10:52:00;34.10;1.00
11650;DHT22;5881;48.522;7.682;2022-07-03T10:54:35;34.70;1.00
11650;DHT22;5881;48.522;7.682;2022-07-03T10:57:17;35.10;1.00
11650;DHT22;5881;48.522;7.682;2022-07-03T11:05:13;35.40;1.00
11650;DHT22;5881;48.522;7.682;2022-07-03T11:12:59;35.50;1.00
11650;DHT22;5881;48.522;7.682;2022-07-03T11:15:31;36.10;1.00
11650;DHT22;5881;48.522;7.682;2022-07-03T11:25:57;34.90;1.00
11650;DHT22;5881;48.522;7.682;2022-07-03T11:38:48;34.60;1.00
11650;DHT22;5881;48.522;7.682;2022-07-03T11:41:16;34.70;1.00
11650;DHT22;5881;48.522;7.682;2022-07-03T11:43:53;34.20;1.00
11650;DHT22;5881;48.522;7.682;2022-07-03T11:46:23;33.70;1.00
11650;DHT22;5881;48.522;7.682;2022-07-03T11:48:50;33.40;1.00
11650;DHT22;5881;48.522;7.682;2022-07-03T11:51:16;33.00;1.00
11650;DHT22;5881;48.522;7.682;2022-07-03T11:53:42;32.40;1.00
11650;DHT22;5881;48.522;7.682;2022-07-03T11:56:09;32.60;1.00
11650;DHT22;5881;48.522;7.682;2022-07-03T12:01:11;33.00;1.00
11650;DHT22;5881;48.522;7.682;2022-07-03T12:04:21;32.40;1.00
11650;DHT22;5881;48.522;7.682;2022-07-03T12:06:59;33.00;1.00
11650;DHT22;5881;48.522;7.682;2022-07-03T12:09:30;32.70;1.00
11650;DHT22;5881;48.522;7.682;2022-07-03T12:12:03;33.20;1.00
11650;DHT22;5881;48.522;7.682;2022-07-03T12:14:50;32.40;1.00
11650;DHT22;5881;48.522;7.682;2022-07-03T12:17:23;32.80;1.00
11650;DHT22;5881;48.522;7.682;2022-07-03T12:19:51;32.80;1.00
11650;DHT22;5881;48.522;7.682;2022-07-03T12:22:32;32.60;1.00
11650;DHT22;5881;48.522;7.682;2022-07-03T12:25:07;32.80;1.00
11650;DHT22;5881;48.522;7.682;2022-07-03T12:27:35;32.40;1.00
11650;DHT22;5881;48.522;7.682;2022-07-03T12:30:01;32.20;1.00
11650;DHT22;5881;48.522;7.682;2022-07-03T12:32:27;32.30;1.00
11650;DHT22;5881;48.522;7.682;2022-07-03T12:34:53;32.20;1.00
11650;DHT22;5881;48.522;7.682;2022-07-03T12:37:40;32.40;1.00
11650;DHT22;5881;48.522;7.682;2022-07-03T12:40:08;32.10;1.00
11650;DHT22;5881;48.522;7.682;2022-07-03T12:42:48;32.80;1.00
11650;DHT22;5881;48.522;7.682;2022-07-03T12:45:22;32.60;1.00
11650;DHT22;5881;48.522;7.682;2022-07-03T12:48:02;32.40;1.00
11650;DHT22;5881;48.522;7.682;2022-07-03T12:50:48;32.60;1.00
11650;DHT22;5881;48.522;7.682;2022-07-03T12:53:33;32.60;1.00
11650;DHT22;5881;48.522;7.682;2022-07-03T12:56:06;32.80;1.00
11650;DHT22;5881;48.522;7.682;2022-07-03T12:58:36;32.40;1.00
11650;DHT22;5881;48.522;7.682;2022-07-03T13:01:29;32.80;1.00
11650;DHT22;5881;48.522;7.682;2022-07-03T13:03:55;32.80;1.00
11650;DHT22;5881;48.522;7.682;2022-07-03T13:06:22;32.40;1.00
11650;DHT22;5881;48.522;7.682;2022-07-03T13:08:49;32.40;1.00
11650;DHT22;5881;48.522;7.682;2022-07-03T13:11:25;32.60;1.00
11650;DHT22;5881;48.522;7.682;2022-07-03T13:13:51;31.80;1.00
11650;DHT22;5881;48.522;7.682;2022-07-03T13:16:26;32.10;1.00
11650;DHT22;5881;48.522;7.682;2022-07-03T13:19:03;32.10;1.00
11650;DHT22;5881;48.522;7.682;2022-07-03T13:21:29;31.70;1.00
11650;DHT22;5881;48.522;7.682;2022-07-03T13:23:56;32.40;1.00
11650;DHT22;5881;48.522;7.682;2022-07-03T13:26:21;32.20;1.00
11650;DHT22;5881;48.522;7.682;2022-07-03T13:28:47;32.40;1.00
11650;DHT22;5881;48.522;7.682;2022-07-03T13:31:13;32.50;1.00
11650;DHT22;5881;48.522;7.682;2022-07-03T13:33:38;32.60;1.00
11650;DHT22;5881;48.522;7.682;2022-07-03T13:36:04;32.50;1.00
11650;DHT22;5881;48.522;7.682;2022-07-03T13:38:30;32.30;1.00
11650;DHT22;5881;48.522;7.682;2022-07-03T13:40:56;32.50;1.00
11650;DHT22;5881;48.522;7.682;2022-07-03T13:43:21;32.00;1.00
11650;DHT22;5881;48.522;7.682;2022-07-03T13:45:47;32.20;1.00
11650;DHT22;5881;48.522;7.682;2022-07-03T13:48:13;31.90;1.00
11650;DHT22;5881;48.522;7.682;2022-07-03T13:50:42;31.80;1.00
11650;DHT22;5881;48.522;7.682;2022-07-03T13:53:08;32.10;1.00
11650;DHT22;5881;48.522;7.682;2022-07-03T13:55:34;32.00;1.00
11650;DHT22;5881;48.522;7.682;2022-07-03T13:58:00;32.10;1.00
11650;DHT22;5881;48.522;7.682;2022-07-03T14:00:30;32.30;1.00
11650;DHT22;5881;48.522;7.682;2022-07-03T14:02:56;32.10;1.00
11650;DHT22;5881;48.522;7.682;2022-07-03T14:05:21;32.20;1.00
11650;DHT22;5881;48.522;7.682;2022-07-03T14:07:47;31.80;1.00
11650;DHT22;5881;48.522;7.682;2022-07-03T14:10:14;31.30;1.00
11650;DHT22;5881;48.522;7.682;2022-07-03T14:12:40;31.70;1.00
11650;DHT22;5881;48.522;7.682;2022-07-03T14:15:06;32.00;1.00
11650;DHT22;5881;48.522;7.682;2022-07-03T14:17:32;31.60;1.00
11650;DHT22;5881;48.522;7.682;2022-07-03T14:19:58;31.20;1.00
11650;DHT22;5881;48.522;7.682;2022-07-03T14:22:24;31.30;1.00
11650;DHT22;5881;48.522;7.682;2022-07-03T14:24:49;31.40;1.00
11650;DHT22;5881;48.522;7.682;2022-07-03T14:27:15;31.40;1.00
11650;DHT22;5881;48.522;7.682;2022-07-03T14:29:59;31.30;1.00
11650;DHT22;5881;48.522;7.682;2022-07-03T14:32:43;31.30;1.00
11650;DHT22;5881;48.522;7.682;2022-07-03T14:35:09;31.50;1.00
11650;DHT22;5881;48.522;7.682;2022-07-03T14:37:35;31.40;1.00
11650;DHT22;5881;48.522;7.682;2022-07-03T14:40:01;30.80;1.00
11650;DHT22;5881;48.522;7.682;2022-07-03T14:42:26;30.80;1.00
11650;DHT22;5881;48.522;7.682;2022-07-03T14:44:52;30.80;1.00
11650;DHT22;5881;48.522;7.682;2022-07-03T14:47:18;30.90;1.00
11650;DHT22;5881;48.522;7.682;2022-07-03T14:49:44;31.00;1.00
11650;DHT22;5881;48.522;7.682;2022-07-03T14:52:10;30.90;1.00
11650;DHT22;5881;48.522;7.682;2022-07-03T14:54:35;30.90;1.00
11650;DHT22;5881;48.522;7.682;2022-07-03T14:57:02;31.20;1.00
11650;DHT22;5881;48.522;7.682;2022-07-03T14:59:41;31.40;1.00
11650;DHT22;5881;48.522;7.682;2022-07-03T15:02:18;31.50;1.00
11650;DHT22;5881;48.522;7.682;2022-07-03T15:07:21;30.80;1.00
11650;DHT22;5881;48.522;7.682;2022-07-03T15:10:03;30.60;1.00
11650;DHT22;5881;48.522;7.682;2022-07-03T15:12:33;30.70;1.00
11650;DHT22;5881;48.522;7.682;2022-07-03T15:15:02;30.40;1.00
11650;DHT22;5881;48.522;7.682;2022-07-03T15:17:28;30.70;1.00
11650;DHT22;5881;48.522;7.682;2022-07-03T15:19:55;30.90;1.00
11650;DHT22;5881;48.522;7.682;2022-07-03T15:22:22;31.20;1.00
11650;DHT22;5881;48.522;7.682;2022-07-03T15:24:52;31.00;1.00
11650;DHT22;5881;48.522;7.682;2022-07-03T15:27:23;30.70;1.00
11650;DHT22;5881;48.522;7.682;2022-07-03T15:29:49;30.40;1.00
11650;DHT22;5881;48.522;7.682;2022-07-03T15:32:16;30.20;1.00
11650;DHT22;5881;48.522;7.682;2022-07-03T15:34:42;30.20;1.00
11650;DHT22;5881;48.522;7.682;2022-07-03T15:40:03;30.20;1.00
11650;DHT22;5881;48.522;7.682;2022-07-03T15:45:23;29.80;1.00
11650;DHT22;5881;48.522;7.682;2022-07-03T15:48:10;30.00;1.00
11650;DHT22;5881;48.522;7.682;2022-07-03T15:51:16;30.10;1.00
11650;DHT22;5881;48.522;7.682;2022-07-03T15:53:44;30.10;1.00
11650;DHT22;5881;48.522;7.682;2022-07-03T15:56:13;30.20;1.00
11650;DHT22;5881;48.522;7.682;2022-07-03T15:58:47;30.10;1.00
11650;DHT22;5881;48.522;7.682;2022-07-03T16:01:15;29.90;1.00
11650;DHT22;5881;48.522;7.682;2022-07-03T16:04:10;29.80;1.00
11650;DHT22;5881;48.522;7.682;2022-07-03T16:06:44;29.70;1.00
11650;DHT22;5881;48.522;7.682;2022-07-03T16:09:11;29.80;1.00
11650;DHT22;5881;48.522;7.682;2022-07-03T16:11:37;29.90;1.00
11650;DHT22;5881;48.522;7.682;2022-07-03T16:14:05;30.00;1.00
11650;DHT22;5881;48.522;7.682;2022-07-03T16:16:32;29.90;1.00
11650;DHT22;5881;48.522;7.682;2022-07-03T16:19:03;30.10;1.00
11650;DHT22;5881;48.522;7.682;2022-07-03T16:21:30;30.20;1.00
11650;DHT22;5881;48.522;7.682;2022-07-03T16:24:00;30.20;1.00
11650;DHT22;5881;48.522;7.682;2022-07-03T16:26:28;30.20;1.00
11650;DHT22;5881;48.522;7.682;2022-07-03T16:28:54;30.20;1.00
11650;DHT22;5881;48.522;7.682;2022-07-03T16:31:24;30.50;1.00
11650;DHT22;5881;48.522;7.682;2022-07-03T16:34:23;30.70;1.00
11650;DHT22;5881;48.522;7.682;2022-07-03T16:36:52;30.90;1.00
11650;DHT22;5881;48.522;7.682;2022-07-03T16:39:26;30.80;1.00
11650;DHT22;5881;48.522;7.682;2022-07-03T16:41:54;30.80;1.00
11650;DHT22;5881;48.522;7.682;2022-07-03T16:44:20;30.80;1.00
11650;DHT22;5881;48.522;7.682;2022-07-03T16:46:50;30.60;1.00
11650;DHT22;5881;48.522;7.682;2022-07-03T16:49:21;30.60;1.00
11650;DHT22;5881;48.522;7.682;2022-07-03T16:51:51;30.50;1.00
11650;DHT22;5881;48.522;7.682;2022-07-03T16:54:21;30.40;1.00
11650;DHT22;5881;48.522;7.682;2022-07-03T16:56:48;30.50;1.00
11650;DHT22;5881;48.522;7.682;2022-07-03T16:59:16;30.20;1.00
11650;DHT22;5881;48.522;7.682;2022-07-03T17:01:42;30.20;1.00
11650;DHT22;5881;48.522;7.682;2022-07-03T17:04:08;30.10;1.00
11650;DHT22;5881;48.522;7.682;2022-07-03T17:06:35;30.00;1.00
11650;DHT22;5881;48.522;7.682;2022-07-03T17:09:02;29.90;1.00
11650;DHT22;5881;48.522;7.682;2022-07-03T17:11:33;30.00;1.00
11650;DHT22;5881;48.522;7.682;2022-07-03T17:13:59;30.10;1.00
11650;DHT22;5881;48.522;7.682;2022-07-03T17:16:27;30.10;1.00
11650;DHT22;5881;48.522;7.682;2022-07-03T17:18:56;29.90;1.00
11650;DHT22;5881;48.522;7.682;2022-07-03T17:21:28;29.80;1.00
11650;DHT22;5881;48.522;7.682;2022-07-03T17:23:54;29.90;1.00
11650;DHT22;5881;48.522;7.682;2022-07-03T17:26:23;30.00;1.00
11650;DHT22;5881;48.522;7.682;2022-07-03T17:29:03;30.00;1.00